Time;durP1;ratioP1;P1;durP2;ratioP2;P2;SDS_P1;SDS_P2;PMS_P1;PMS_P2;Temp;Humidity;BMP_temperature;BMP_pressure;BME280_temperature;BME280_humidity;BME280_pressure;Samples;Min_cycle;Max_cycle;Signal;HPM_P1;HPM_P2
2022/12/22 03:26:19;;;;;;;4.30;3.90;;;10.30;99.90;;;;;;5055387;28;20827;-77
2022/12/22 03:28:45;;;;;;;5.55;4.00;;;10.30;99.90;;;;;;5071635;28;20471;-77
2022/12/22 03:31:10;;;;;;;5.00;4.07;;;10.30;99.90;;;;;;5072408;28;20729;-77
2022/12/22 03:33:36;;;;;;;4.20;3.80;;;10.30;99.90;;;;;;5071765;28;20390;-77
2022/12/22 03:36:02;;;;;;;5.13;4.33;;;10.30;99.90;;;;;;5073006;28;20748;-77
2022/12/22 03:38:28;;;;;;;3.70;3.40;;;10.30;99.90;;;;;;5073132;28;20383;-78
2022/12/22 03:40:54;;;;;;;5.03;4.35;;;10.40;99.90;;;;;;5076072;28;20888;-77
2022/12/22 03:46:46;;;;;;;3.58;3.00;;;10.40;99.90;;;;;;5073555;28;20487;-76
2022/12/22 03:49:12;;;;;;;3.42;3.00;;;10.40;99.90;;;;;;5085011;28;20437;-76
2022/12/22 03:51:48;;;;;;;3.58;3.28;;;10.40;99.90;;;;;;5092561;28;20406;-77
2022/12/22 03:54:17;;;;;;;5.30;3.17;;;10.30;99.90;;;;;;5068562;28;20760;-76
2022/12/22 03:56:43;;;;;;;3.10;2.90;;;10.30;99.90;;;;;;5076541;28;20797;-76
2022/12/22 03:59:09;;;;;;;3.70;3.30;;;10.40;99.90;;;;;;5071903;28;20380;-76
2022/12/22 04:01:48;;;;;;;3.40;3.10;;;10.40;99.90;;;;;;5074977;28;20449;-76
2022/12/22 04:04:15;;;;;;;5.65;3.72;;;10.40;99.90;;;;;;5081666;28;20372;-77
2022/12/22 04:06:41;;;;;;;4.30;3.90;;;10.40;99.90;;;;;;5080962;28;20903;-75
2022/12/22 04:09:07;;;;;;;4.60;4.07;;;10.40;99.90;;;;;;5082505;28;20471;-77
2022/12/22 04:14:17;;;;;;;3.55;3.13;;;10.50;99.90;;;;;;5074732;28;20379;-78
2022/12/22 04:16:43;;;;;;;4.53;3.40;;;10.50;99.90;;;;;;5072627;28;20384;-76
2022/12/22 04:19:08;;;;;;;5.68;3.72;;;10.50;99.90;;;;;;5077229;28;20392;-78
2022/12/22 04:21:35;;;;;;;4.03;3.60;;;10.50;99.90;;;;;;5080600;28;20849;-79
2022/12/22 04:24:00;;;;;;;4.15;3.20;;;10.50;99.90;;;;;;5081101;28;20389;-78
2022/12/22 04:26:27;;;;;;;5.47;3.70;;;10.50;99.90;;;;;;5080810;28;20921;-78
2022/12/22 04:28:53;;;;;;;5.85;3.30;;;10.50;99.90;;;;;;5082884;28;20387;-78
2022/12/22 04:31:20;;;;;;;5.50;4.40;;;10.60;99.90;;;;;;5072257;28;20795;-75
2022/12/22 04:33:45;;;;;;;4.85;3.63;;;10.50;99.90;;;;;;5082636;28;20472;-75
2022/12/22 04:36:12;;;;;;;4.60;3.87;;;10.50;99.90;;;;;;5091207;28;20406;-75
2022/12/22 04:38:38;;;;;;;5.15;4.25;;;10.40;99.90;;;;;;5097112;28;20381;-77
2022/12/22 04:41:04;;;;;;;6.55;4.60;;;10.40;99.90;;;;;;5106753;28;20379;-76
2022/12/22 04:43:30;;;;;;;5.05;4.35;;;10.40;99.90;;;;;;5114537;28;20449;-76
2022/12/22 04:45:56;;;;;;;4.78;4.32;;;10.40;99.90;;;;;;5114436;28;20390;-77
2022/12/22 04:48:26;;;;;;;5.57;4.45;;;10.50;99.90;;;;;;5113295;28;20385;-77
2022/12/22 04:50:54;;;;;;;5.72;4.90;;;10.40;99.90;;;;;;5105351;28;20377;-76
2022/12/22 04:53:20;;;;;;;5.60;4.93;;;10.40;99.90;;;;;;5104864;28;20382;-76
2022/12/22 04:55:47;;;;;;;5.68;4.78;;;10.40;99.90;;;;;;5095293;28;20475;-76
2022/12/22 04:58:13;;;;;;;8.55;6.30;;;10.50;99.90;;;;;;5101596;28;20958;-77
2022/12/22 05:00:39;;;;;;;10.18;7.22;;;10.50;99.90;;;;;;5094267;28;20473;-77
2022/12/22 05:03:06;;;;;;;6.22;5.05;;;10.50;99.90;;;;;;5092339;28;20394;-77
2022/12/22 05:05:32;;;;;;;6.22;5.32;;;10.50;99.90;;;;;;5093026;28;20873;-77
2022/12/22 05:07:57;;;;;;;5.23;4.67;;;10.50;99.90;;;;;;5090433;28;20483;-77
2022/12/22 05:10:23;;;;;;;8.18;5.20;;;10.50;99.90;;;;;;5093198;28;20512;-77
2022/12/22 05:12:54;;;;;;;10.40;6.88;;;10.40;99.90;;;;;;5090756;28;20394;-75
2022/12/22 05:15:26;;;;;;;9.10;6.67;;;10.40;99.90;;;;;;5096817;28;20935;-77
2022/12/22 05:17:51;;;;;;;9.15;6.80;;;10.40;99.90;;;;;;5104275;28;20420;-76
2022/12/22 05:20:18;;;;;;;9.20;7.20;;;10.40;99.90;;;;;;5102159;28;20369;-77
2022/12/22 05:22:43;;;;;;;10.50;7.05;;;10.40;99.90;;;;;;5099432;28;20382;-77
2022/12/22 05:25:09;;;;;;;7.72;6.50;;;10.40;99.90;;;;;;5095537;28;20389;-76
2022/12/22 05:27:35;;;;;;;11.18;6.90;;;10.40;99.90;;;;;;5096545;28;20858;-77
2022/12/22 05:30:01;;;;;;;10.20;6.40;;;10.40;99.90;;;;;;5095765;28;20506;-77
2022/12/22 05:32:26;;;;;;;9.03;7.47;;;10.30;99.90;;;;;;5094867;28;20420;-77
2022/12/22 05:34:52;;;;;;;11.33;7.20;;;10.40;99.90;;;;;;5095802;28;20452;-76
2022/12/22 05:37:17;;;;;;;10.20;6.70;;;10.40;99.90;;;;;;5095288;28;20386;-76
2022/12/22 05:39:43;;;;;;;9.40;6.90;;;10.40;99.90;;;;;;5103953;28;20448;-77
2022/12/22 05:42:09;;;;;;;10.90;7.28;;;10.40;99.90;;;;;;5097124;28;20903;-76
2022/12/22 05:44:34;;;;;;;10.80;7.30;;;10.40;99.90;;;;;;5101029;28;20389;-76
2022/12/22 05:47:00;;;;;;;7.85;7.03;;;10.50;99.90;;;;;;5097964;28;20389;-77
2022/12/22 05:49:25;;;;;;;9.03;7.50;;;10.50;99.90;;;;;;5097048;28;20420;-77
2022/12/22 05:51:53;;;;;;;13.20;9.10;;;10.40;99.90;;;;;;5096110;28;20397;-77
2022/12/22 05:54:18;;;;;;;10.88;7.85;;;10.50;99.90;;;;;;5096436;28;20382;-77
2022/12/22 05:56:44;;;;;;;10.73;8.05;;;10.50;99.90;;;;;;5097641;28;20382;-77
2022/12/22 05:59:10;;;;;;;9.20;7.90;;;10.60;99.90;;;;;;5095342;28;20774;-77
2022/12/22 06:01:36;;;;;;;8.15;7.20;;;10.50;99.90;;;;;;5094527;28;20389;-77
2022/12/22 06:04:02;;;;;;;11.68;7.05;;;10.70;99.90;;;;;;5097690;28;20382;-77
2022/12/22 06:06:28;;;;;;;10.57;8.37;;;10.80;99.90;;;;;;5102593;28;20388;-77
2022/12/22 06:08:53;;;;;;;11.90;9.10;;;10.70;99.90;;;;;;5101665;28;20382;-77
2022/12/22 06:11:19;;;;;;;12.40;9.33;;;10.70;99.90;;;;;;5101681;28;20495;-78
2022/12/22 06:13:45;;;;;;;12.57;10.10;;;10.60;99.90;;;;;;5105071;28;20385;-77
2022/12/22 06:16:11;;;;;;;12.90;9.57;;;10.60;99.90;;;;;;5100094;28;20406;-77
2022/12/22 06:18:36;;;;;;;15.47;11.20;;;10.60;99.90;;;;;;5095847;28;20870;-77
2022/12/22 06:21:02;;;;;;;11.30;9.60;;;10.60;99.90;;;;;;5094684;28;20739;-78
2022/12/22 06:23:28;;;;;;;14.10;10.30;;;10.70;99.90;;;;;;5096253;28;20474;-78
2022/12/22 06:25:59;;;;;;;11.65;9.57;;;10.90;99.90;;;;;;5097920;28;20378;-78
2022/12/22 06:28:25;;;;;;;12.10;10.02;;;10.80;99.90;;;;;;5095394;28;20382;-78
2022/12/22 06:30:50;;;;;;;13.55;10.90;;;10.70;99.90;;;;;;5096170;28;20390;-77
2022/12/22 06:33:16;;;;;;;13.85;10.82;;;10.60;99.90;;;;;;5096566;28;20785;-78
2022/12/22 06:35:42;;;;;;;13.05;10.50;;;10.60;99.90;;;;;;5097542;28;20412;-77
2022/12/22 06:38:07;;;;;;;14.23;11.25;;;10.60;99.90;;;;;;5096314;28;20378;-77
2022/12/22 06:40:33;;;;;;;14.45;10.85;;;10.50;99.90;;;;;;5094905;28;20374;-78
2022/12/22 06:43:07;;;;;;;14.00;11.30;;;10.60;99.90;;;;;;5100168;28;20783;-77
2022/12/22 06:45:35;;;;;;;16.00;11.35;;;10.60;99.90;;;;;;5098264;28;20976;-78
2022/12/22 06:48:01;;;;;;;14.05;10.95;;;10.60;99.90;;;;;;5095824;28;20394;-77
2022/12/22 06:50:26;;;;;;;14.93;11.20;;;10.60;99.90;;;;;;5097412;28;20385;-76
2022/12/22 06:52:52;;;;;;;15.17;11.57;;;10.60;99.90;;;;;;5094615;28;20390;-77
2022/12/22 06:55:17;;;;;;;16.23;12.43;;;10.60;99.90;;;;;;5096680;28;20711;-77
2022/12/22 06:57:43;;;;;;;20.25;12.95;;;10.50;99.90;;;;;;5094367;28;20382;-77
2022/12/22 07:00:09;;;;;;;17.33;12.80;;;10.60;99.90;;;;;;5094861;28;20378;-77
2022/12/22 07:02:34;;;;;;;18.02;13.18;;;10.60;99.90;;;;;;5097974;28;20370;-75
2022/12/22 07:05:00;;;;;;;17.77;12.87;;;10.60;99.90;;;;;;5100248;28;20428;-77
2022/12/22 07:07:25;;;;;;;17.17;12.63;;;10.60;99.90;;;;;;5100612;28;20386;-76
2022/12/22 07:09:51;;;;;;;17.83;12.27;;;10.60;99.90;;;;;;5097753;28;20386;-77
2022/12/22 07:12:17;;;;;;;19.08;13.75;;;10.60;99.90;;;;;;5099079;28;20381;-76
2022/12/22 07:14:42;;;;;;;18.50;13.60;;;10.60;99.90;;;;;;5095914;28;20406;-77
2022/12/22 07:17:08;;;;;;;20.63;14.20;;;10.60;99.90;;;;;;5095003;28;20454;-77
2022/12/22 07:19:33;;;;;;;16.63;12.50;;;10.70;99.90;;;;;;5096097;28;20437;-77
2022/12/22 07:21:59;;;;;;;18.57;13.40;;;10.70;99.90;;;;;;5075703;28;20886;-77
2022/12/22 07:24:25;;;;;;;22.47;14.37;;;10.60;99.90;;;;;;5094629;28;20385;-77
2022/12/22 07:26:51;;;;;;;19.08;13.52;;;10.70;99.90;;;;;;5095160;28;20386;-76
2022/12/22 07:29:17;;;;;;;16.70;12.10;;;10.70;99.90;;;;;;5093281;28;20527;-77
2022/12/22 07:31:42;;;;;;;18.60;11.75;;;10.90;99.90;;;;;;5095825;28;20520;-77
2022/12/22 07:34:08;;;;;;;15.40;10.40;;;10.90;99.90;;;;;;5099311;28;20857;-76
2022/12/22 07:36:33;;;;;;;13.57;9.67;;;11.00;99.90;;;;;;5098181;28;20412;-75
2022/12/22 07:38:59;;;;;;;13.40;8.80;;;11.00;99.90;;;;;;5094236;28;20390;-78
2022/12/22 07:44:09;;;;;;;11.70;9.00;;;11.10;99.90;;;;;;5095327;28;20408;-77
2022/12/22 07:46:37;;;;;;;11.20;8.90;;;11.10;99.90;;;;;;5093352;28;20411;-77
2022/12/22 07:51:48;;;;;;;13.65;10.05;;;11.20;99.90;;;;;;5095467;28;20405;-77
2022/12/22 07:54:15;;;;;;;14.53;10.33;;;11.10;99.90;;;;;;5094740;28;20422;-77
2022/12/22 07:56:41;;;;;;;12.73;10.50;;;11.20;99.90;;;;;;5112377;28;20416;-77
2022/12/22 07:59:07;;;;;;;55.17;31.42;;;11.10;99.90;;;;;;5115596;28;20366;-76
2022/12/22 08:01:33;;;;;;;16.43;11.17;;;11.10;99.90;;;;;;5113534;28;20413;-76
2022/12/22 08:03:59;;;;;;;15.52;12.10;;;11.20;99.90;;;;;;5107081;28;20823;-77
2022/12/22 08:06:25;;;;;;;17.40;11.77;;;11.20;99.90;;;;;;5098237;28;20500;-78
2022/12/22 08:08:51;;;;;;;17.38;11.95;;;11.10;99.90;;;;;;5095858;28;20393;-77
2022/12/22 08:11:17;;;;;;;21.05;13.27;;;11.00;99.90;;;;;;5091898;28;20385;-76
2022/12/22 08:13:42;;;;;;;19.10;12.60;;;10.90;99.90;;;;;;5093049;28;20851;-77
2022/12/22 08:16:11;;;;;;;20.63;13.37;;;10.80;99.90;;;;;;5092372;28;20562;-77
2022/12/22 08:18:37;;;;;;;23.80;14.95;;;10.70;99.90;;;;;;5093720;28;20397;-77
2022/12/22 08:21:04;;;;;;;32.10;16.40;;;10.70;99.90;;;;;;5091612;28;20374;-77
2022/12/22 08:23:30;;;;;;;24.60;15.60;;;10.60;99.90;;;;;;5093654;28;20751;-78
2022/12/22 08:26:17;;;;;;;27.13;15.43;;;10.60;99.90;;;;;;5094730;28;20408;-77
2022/12/22 08:28:54;;;;;;;26.63;15.80;;;10.60;99.90;;;;;;5093965;28;20392;-77
2022/12/22 08:31:23;;;;;;;25.52;16.05;;;10.60;99.90;;;;;;5092886;28;21051;-77
2022/12/22 08:33:48;;;;;;;28.20;16.23;;;10.60;99.90;;;;;;5094278;28;20443;-77
2022/12/22 08:36:14;;;;;;;30.17;17.38;;;10.50;99.90;;;;;;5091860;28;20405;-77
2022/12/22 08:38:41;;;;;;;30.58;18.10;;;10.60;99.90;;;;;;5090568;28;20413;-77
2022/12/22 08:41:10;;;;;;;27.23;16.88;;;10.60;99.90;;;;;;5091314;28;20417;-77
2022/12/22 08:43:36;;;;;;;31.45;19.02;;;10.60;99.90;;;;;;5091789;28;20409;-76
2022/12/22 08:46:01;;;;;;;30.00;18.83;;;10.60;99.90;;;;;;5093204;28;20401;-78
2022/12/22 08:48:27;;;;;;;30.92;19.50;;;10.60;99.90;;;;;;5092157;28;20777;-75
2022/12/22 08:50:53;;;;;;;31.00;18.42;;;10.60;99.90;;;;;;5091647;28;20405;-77
2022/12/22 08:53:18;;;;;;;30.87;18.37;;;10.60;99.90;;;;;;5103587;22;20422;-73
2022/12/22 08:55:54;;;;;;;28.70;18.13;;;10.60;99.90;;;;;;5091929;28;20882;-73
2022/12/22 08:58:20;;;;;;;33.63;21.10;;;10.60;99.90;;;;;;5093655;28;20802;-74
2022/12/22 09:00:46;;;;;;;31.85;20.15;;;10.60;99.90;;;;;;5105912;28;20374;-73
2022/12/22 09:03:12;;;;;;;36.65;22.52;;;10.60;99.90;;;;;;5107521;28;20950;-73
2022/12/22 09:05:38;;;;;;;36.30;21.80;;;10.70;99.90;;;;;;5097991;28;20754;-73
2022/12/22 09:08:07;;;;;;;33.50;20.53;;;10.70;99.90;;;;;;5091502;28;20420;-73
2022/12/22 09:10:32;;;;;;;34.53;19.90;;;10.80;99.90;;;;;;5091080;28;20385;-73
2022/12/22 09:12:58;;;;;;;36.50;20.95;;;10.80;99.90;;;;;;5090309;28;20393;-73
2022/12/22 09:15:24;;;;;;;38.72;20.75;;;10.80;99.90;;;;;;5090919;28;20401;-72
2022/12/22 09:17:49;;;;;;;34.25;19.65;;;10.80;99.90;;;;;;5090772;28;20465;-70
2022/12/22 09:20:15;;;;;;;32.38;18.88;;;10.90;99.90;;;;;;5091225;28;20419;-72
2022/12/22 09:22:41;;;;;;;35.65;21.30;;;10.90;99.90;;;;;;5090904;28;20866;-72
2022/12/22 09:25:07;;;;;;;38.47;21.40;;;10.90;99.90;;;;;;5091767;28;20382;-72
2022/12/22 09:27:32;;;;;;;38.50;22.08;;;10.90;99.90;;;;;;5091296;28;20504;-73
2022/12/22 09:29:58;;;;;;;33.30;20.17;;;11.00;99.90;;;;;;5091168;28;20378;-73
2022/12/22 09:32:24;;;;;;;33.30;20.60;;;11.00;99.90;;;;;;5090709;28;20390;-74
2022/12/22 09:34:49;;;;;;;31.97;19.27;;;11.00;99.90;;;;;;5091233;28;20397;-72
2022/12/22 09:37:15;;;;;;;30.73;18.73;;;11.00;99.90;;;;;;5091247;28;20858;-72
2022/12/22 09:39:41;;;;;;;30.33;18.13;;;11.10;99.90;;;;;;5091071;28;20459;-73
2022/12/22 09:42:14;;;;;;;27.43;17.67;;;11.20;99.90;;;;;;5090205;28;20738;-72
2022/12/22 09:44:43;;;;;;;25.98;15.80;;;11.30;99.90;;;;;;5091147;28;20378;-72
2022/12/22 09:47:20;;;;;;;26.85;17.33;;;11.50;99.90;;;;;;5091729;28;20415;-74
2022/12/22 09:49:46;;;;;;;28.40;17.10;;;11.40;99.90;;;;;;5091643;28;20790;-73
2022/12/22 09:52:34;;;;;;;27.80;17.50;;;11.40;99.90;;;;;;5090992;28;20468;-73
2022/12/22 09:55:25;;;;;;;33.05;21.27;;;11.30;99.90;;;;;;5085612;28;20408;-73
2022/12/22 09:57:54;;;;;;;32.92;20.08;;;11.20;99.90;;;;;;5093751;28;20405;-73
2022/12/22 10:00:23;;;;;;;31.88;18.98;;;11.10;99.90;;;;;;5092621;28;20408;-74
2022/12/22 10:03:02;;;;;;;32.95;19.70;;;11.20;99.90;;;;;;5093023;28;20723;-73
2022/12/22 10:05:42;;;;;;;30.73;19.67;;;11.10;99.90;;;;;;5102999;28;20470;-72
2022/12/22 10:08:17;;;;;;;32.95;20.35;;;11.00;99.90;;;;;;5106493;28;20477;-75
2022/12/22 10:10:43;;;;;;;32.00;19.88;;;11.10;99.90;;;;;;5102169;28;20439;-74
2022/12/22 10:13:17;;;;;;;32.17;20.20;;;11.10;99.90;;;;;;5108766;28;20382;-74
2022/12/22 10:15:43;;;;;;;30.85;18.85;;;11.20;99.90;;;;;;5101901;28;20433;-73
2022/12/22 10:18:14;;;;;;;27.25;18.40;;;11.20;99.90;;;;;;5098591;28;20378;-73
2022/12/22 10:20:42;;;;;;;32.60;19.43;;;11.20;99.90;;;;;;5111774;28;20375;-75
2022/12/22 10:23:19;;;;;;;27.98;18.83;;;11.20;99.90;;;;;;5100855;28;20387;-74
2022/12/22 10:25:56;;;;;;;29.85;19.15;;;11.20;99.90;;;;;;5094567;28;20427;-73
2022/12/22 10:28:27;;;;;;;33.50;19.63;;;11.20;99.90;;;;;;5094856;28;20400;-73
2022/12/22 10:31:14;;;;;;;30.52;20.10;;;11.10;98.70;;;;;;5093618;28;20382;-72
2022/12/22 10:33:40;;;;;;;33.90;20.80;;;11.10;99.50;;;;;;5094459;28;20381;-73
2022/12/22 10:36:06;;;;;;;33.13;20.70;;;11.10;99.90;;;;;;5095146;28;20402;-73
2022/12/22 10:38:38;;;;;;;36.08;22.13;;;11.10;99.90;;;;;;5094736;28;20380;-73
2022/12/22 10:41:19;;;;;;;34.80;22.10;;;11.10;99.50;;;;;;5097756;28;20378;-72
2022/12/22 10:43:47;;;;;;;32.08;20.38;;;11.10;99.90;;;;;;5103861;28;20385;-74
2022/12/22 10:46:13;;;;;;;32.88;20.52;;;11.20;97.80;;;;;;5103402;28;20401;-73
2022/12/22 10:48:39;;;;;;;35.65;21.50;;;11.30;94.80;;;;;;5104045;28;20385;-73
2022/12/22 10:51:08;;;;;;;35.50;20.98;;;11.30;93.70;;;;;;5100901;28;20382;-73
2022/12/22 10:53:38;;;;;;;34.88;21.70;;;11.30;93.00;;;;;;5093837;28;20433;-73
2022/12/22 10:56:06;;;;;;;36.22;22.50;;;11.30;93.00;;;;;;5093372;28;20447;-73
2022/12/22 10:58:48;;;;;;;40.70;24.17;;;11.10;94.50;;;;;;5093721;28;20428;-72
2022/12/22 11:01:29;;;;;;;37.63;22.03;;;11.00;97.10;;;;;;5093000;28;20414;-71
2022/12/22 11:03:56;;;;;;;37.88;23.10;;;10.90;98.10;;;;;;5093001;28;20737;-74
2022/12/22 11:06:22;;;;;;;40.03;23.02;;;10.90;97.20;;;;;;5093460;28;20710;-74
2022/12/22 11:08:48;;;;;;;39.85;23.33;;;10.80;97.20;;;;;;5094386;28;20378;-73
2022/12/22 11:11:31;;;;;;;38.30;23.00;;;10.80;99.90;;;;;;5092708;28;20390;-72
2022/12/22 11:14:01;;;;;;;41.95;24.23;;;11.00;99.80;;;;;;5092570;28;20378;-73
2022/12/22 11:17:07;;;;;;;40.58;23.63;;;11.10;96.80;;;;;;5093279;28;20893;-74
2022/12/22 11:20:08;;;;;;;37.92;23.10;;;11.30;92.10;;;;;;5093079;28;20379;-72
2022/12/22 11:22:40;;;;;;;32.58;20.50;;;11.50;88.80;;;;;;5092916;28;20484;-73
2022/12/22 11:25:50;;;;;;;29.00;18.65;;;11.60;79.90;;;;;;5093222;28;20874;-74
2022/12/22 11:28:32;;;;;;;31.92;18.98;;;11.50;77.40;;;;;;5088298;28;20418;-72
2022/12/22 11:31:25;;;;;;;31.27;18.77;;;11.40;78.80;;;;;;5092486;28;20382;-73
2022/12/22 11:34:25;;;;;;;32.65;19.77;;;11.30;77.40;;;;;;5092211;28;20382;-75
2022/12/22 11:36:51;;;;;;;29.00;18.10;;;11.10;80.00;;;;;;5093653;28;20370;-74
2022/12/22 11:39:35;;;;;;;33.50;19.40;;;11.10;77.70;;;;;;5092774;28;20473;-72
2022/12/22 11:42:27;;;;;;;32.92;19.70;;;11.00;80.10;;;;;;5092959;28;20374;-73
2022/12/22 11:45:14;;;;;;;35.20;20.95;;;11.00;80.30;;;;;;5065612;28;20413;-72
2022/12/22 11:48:04;;;;;;;37.95;21.00;;;10.90;83.10;;;;;;5093812;28;20367;-73
2022/12/22 11:50:44;;;;;;;38.00;22.02;;;10.90;85.40;;;;;;5092918;28;20899;-73
2022/12/22 11:53:39;;;;;;;37.40;21.43;;;11.00;83.40;;;;;;5091402;28;20441;-73
2022/12/22 11:56:24;;;;;;;33.60;19.10;;;11.10;79.60;;;;;;5092840;28;20474;-72
2022/12/22 11:59:14;;;;;;;34.50;21.40;;;11.10;76.50;;;;;;5103637;28;20366;-74
2022/12/22 12:01:56;;;;;;;29.13;19.10;;;11.20;80.40;;;;;;5101820;28;20374;-73
2022/12/22 12:04:56;;;;;;;28.95;17.95;;;11.40;74.40;;;;;;5099610;28;20827;-73
2022/12/22 12:07:28;;;;;;;28.50;17.55;;;11.50;68.10;;;;;;5091219;28;20462;-73
2022/12/22 12:10:26;;;;;;;27.17;16.63;;;11.50;67.80;;;;;;5094026;28;20953;-72
2022/12/22 12:12:58;;;;;;;25.80;15.38;;;11.60;62.50;;;;;;5091144;28;20426;-73
2022/12/22 12:16:11;;;;;;;26.85;15.90;;;11.50;61.30;;;;;;5093119;28;20409;-72
2022/12/22 12:18:58;;;;;;;27.27;16.45;;;11.50;64.20;;;;;;5050781;28;20389;-74
2022/12/22 12:21:35;;;;;;;28.87;17.23;;;11.30;67.20;;;;;;5088787;28;20390;-73
2022/12/22 12:24:03;;;;;;;28.50;16.45;;;11.30;67.80;;;;;;5092118;28;20465;-74
2022/12/22 12:26:34;;;;;;;27.35;16.77;;;11.30;66.00;;;;;;5092028;28;20382;-72
2022/12/22 12:29:14;;;;;;;27.60;16.20;;;11.20;62.70;;;;;;5092303;28;20378;-71
2022/12/22 12:32:05;;;;;;;28.75;16.35;;;11.10;64.60;;;;;;5091620;28;20374;-72
2022/12/22 12:34:36;;;;;;;25.65;16.25;;;11.00;62.60;;;;;;5092162;28;20400;-73
2022/12/22 12:37:13;;;;;;;30.27;16.90;;;11.00;65.80;;;;;;5090229;28;20386;-73
2022/12/22 12:39:45;;;;;;;26.27;17.52;;;11.00;66.80;;;;;;5092078;28;20854;-72
2022/12/22 12:42:29;;;;;;;31.10;17.80;;;11.20;64.80;;;;;;5091628;28;20382;-73
2022/12/22 12:44:55;;;;;;;27.25;16.27;;;11.30;62.40;;;;;;5092234;28;20378;-74
2022/12/22 12:47:34;;;;;;;26.00;17.02;;;11.60;58.10;;;;;;5094543;28;20946;-73
2022/12/22 12:50:32;;;;;;;31.60;18.38;;;11.70;60.90;;;;;;5109529;28;20446;-74
2022/12/22 12:52:58;;;;;;;31.85;17.25;;;11.80;60.80;;;;;;5108859;28;20389;-73
2022/12/22 12:55:43;;;;;;;26.57;15.30;;;11.90;58.90;;;;;;5109439;28;20406;-73
2022/12/22 12:58:11;;;;;;;27.33;13.60;;;12.00;52.30;;;;;;5108677;28;20376;-72
2022/12/22 13:00:36;;;;;;;24.47;15.00;;;11.90;53.80;;;;;;5104695;28;20396;-73
2022/12/22 13:03:06;;;;;;;24.17;14.17;;;11.90;55.40;;;;;;5103591;28;20450;-73
2022/12/22 13:05:50;;;;;;;23.92;13.85;;;11.90;54.40;;;;;;5103615;28;20477;-73
2022/12/22 13:08:28;;;;;;;25.40;13.80;;;11.90;55.10;;;;;;5104118;28;20406;-72
2022/12/22 13:10:54;;;;;;;21.42;13.00;;;11.80;54.50;;;;;;5098916;28;20431;-75
2022/12/22 13:13:23;;;;;;;22.90;13.55;;;11.90;54.40;;;;;;5096603;28;20382;-72
2022/12/22 13:16:08;;;;;;;24.33;13.50;;;12.00;53.50;;;;;;5091676;28;20451;-72
2022/12/22 13:18:34;;;;;;;27.70;13.45;;;11.90;55.10;;;;;;5090287;28;20386;-74
2022/12/22 13:21:07;;;;;;;21.40;13.13;;;11.70;57.70;;;;;;5090170;28;20381;-72
2022/12/22 13:23:40;;;;;;;24.48;13.20;;;11.60;57.70;;;;;;5095757;28;20378;-73
2022/12/22 13:26:24;;;;;;;23.25;13.60;;;11.50;55.80;;;;;;5108645;28;20374;-74
2022/12/22 13:28:57;;;;;;;20.50;12.53;;;11.30;56.60;;;;;;5103271;28;20423;-73
2022/12/22 13:31:47;;;;;;;20.60;12.50;;;11.20;59.20;;;;;;5094579;28;20389;-73
2022/12/22 13:34:36;;;;;;;24.77;12.70;;;11.10;59.80;;;;;;5098997;28;20398;-72
2022/12/22 13:37:14;;;;;;;25.57;13.07;;;10.90;61.10;;;;;;5100355;28;20472;-74
2022/12/22 13:39:41;;;;;;;21.23;12.43;;;10.90;61.90;;;;;;5108525;28;20366;-72
2022/12/22 13:42:10;;;;;;;20.67;12.98;;;10.90;61.90;;;;;;5110601;28;20378;-74
2022/12/22 13:44:37;;;;;;;22.83;12.70;;;11.00;62.80;;;;;;5108194;28;20425;-74
2022/12/22 13:47:06;;;;;;;22.55;13.23;;;11.10;61.80;;;;;;5106020;28;20389;-74
2022/12/22 13:49:34;;;;;;;22.48;12.52;;;11.30;62.10;;;;;;5106130;28;20382;-75
2022/12/22 13:52:01;;;;;;;24.15;13.75;;;11.40;61.20;;;;;;5099822;28;20396;-73
2022/12/22 13:54:32;;;;;;;24.13;14.32;;;11.30;61.50;;;;;;5098088;28;20378;-74
2022/12/22 13:56:59;;;;;;;23.83;14.68;;;11.40;61.40;;;;;;5099527;28;20477;-75
2022/12/22 13:59:29;;;;;;;21.50;13.90;;;11.40;60.00;;;;;;5101339;28;20382;-75
2022/12/22 14:02:12;;;;;;;24.77;14.15;;;11.40;60.80;;;;;;5101761;28;20417;-73
2022/12/22 14:04:41;;;;;;;26.83;14.68;;;11.30;61.20;;;;;;5101803;28;20761;-74
2022/12/22 14:07:11;;;;;;;29.52;16.40;;;11.30;61.70;;;;;;5102135;28;20381;-74
2022/12/22 14:09:41;;;;;;;29.67;17.70;;;11.40;62.80;;;;;;5101210;28;20389;-73
2022/12/22 14:12:12;;;;;;;35.50;20.77;;;11.40;63.10;;;;;;5103145;28;20495;-74
2022/12/22 14:14:41;;;;;;;47.83;26.75;;;11.50;62.50;;;;;;5101580;28;20385;-73
2022/12/22 14:17:35;;;;;;;47.70;29.50;;;11.50;62.80;;;;;;5100722;28;20393;-75
2022/12/22 14:20:19;;;;;;;48.95;30.23;;;11.50;62.10;;;;;;5099526;28;20383;-72
2022/12/22 14:23:10;;;;;;;51.50;31.27;;;11.40;63.30;;;;;;5099526;28;20432;-73
2022/12/22 14:25:40;;;;;;;43.28;27.77;;;11.40;63.00;;;;;;5091372;28;20775;-74
2022/12/22 14:28:19;;;;;;;48.00;29.20;;;11.30;63.00;;;;;;5100235;28;20378;-73
2022/12/22 14:30:48;;;;;;;45.17;28.33;;;11.20;63.90;;;;;;5099305;28;20390;-74
2022/12/22 14:33:26;;;;;;;48.78;31.00;;;11.10;65.30;;;;;;5098212;28;20394;-74
2022/12/22 14:36:22;;;;;;;55.53;32.08;;;10.90;68.20;;;;;;5098625;28;20401;-72
2022/12/22 14:38:53;;;;;;;36.53;21.10;;;11.00;68.80;;;;;;5098002;28;20370;-75
2022/12/22 14:41:41;;;;;;;29.05;18.67;;;10.90;69.50;;;;;;5096140;28;20413;-73
2022/12/22 14:44:33;;;;;;;26.65;17.45;;;10.90;70.60;;;;;;5095792;28;20390;-74
2022/12/22 14:47:10;;;;;;;29.67;16.70;;;10.90;70.80;;;;;;5097213;28;20386;-74
2022/12/22 14:49:43;;;;;;;31.30;15.55;;;10.90;71.70;;;;;;5096321;28;20393;-74
2022/12/22 14:52:20;;;;;;;26.15;15.45;;;10.90;72.30;;;;;;5096853;28;20421;-73
2022/12/22 14:54:48;;;;;;;24.92;16.08;;;10.80;73.00;;;;;;5097110;28;20485;-74
2022/12/22 14:57:20;;;;;;;25.33;14.98;;;10.80;72.90;;;;;;5094729;28;20432;-74
2022/12/22 15:00:06;;;;;;;20.95;13.80;;;10.80;72.70;;;;;;5095004;28;20410;-72
2022/12/22 15:02:38;;;;;;;23.58;14.63;;;10.80;71.60;;;;;;5093983;28;20877;-72
2022/12/22 15:05:36;;;;;;;19.48;12.90;;;10.80;72.30;;;;;;5092928;28;20400;-72
2022/12/22 15:08:04;;;;;;;17.92;12.30;;;10.80;71.40;;;;;;5086209;28;20457;-73
2022/12/22 15:10:37;;;;;;;21.15;11.63;;;10.80;71.70;;;;;;5094579;28;20884;-72
2022/12/22 15:13:05;;;;;;;21.90;11.30;;;10.80;70.90;;;;;;5093578;28;20784;-73
2022/12/22 15:15:32;;;;;;;17.40;10.55;;;10.80;70.40;;;;;;5092728;28;20400;-73
2022/12/22 15:17:58;;;;;;;14.27;10.60;;;10.70;71.70;;;;;;5098386;28;20758;-72
2022/12/22 15:20:26;;;;;;;18.20;10.52;;;10.70;71.40;;;;;;5105546;28;20547;-74
2022/12/22 15:22:52;;;;;;;15.90;10.00;;;10.70;71.30;;;;;;5104866;28;20374;-74
2022/12/22 15:25:21;;;;;;;12.23;8.80;;;10.70;70.00;;;;;;5103703;28;20384;-73
2022/12/22 15:27:47;;;;;;;11.95;8.75;;;10.70;69.20;;;;;;5094820;28;20387;-74
2022/12/22 15:30:16;;;;;;;8.70;7.60;;;10.80;67.90;;;;;;5094955;28;20770;-73
2022/12/22 15:32:42;;;;;;;14.00;8.38;;;10.80;66.40;;;;;;5093728;28;20380;-73
2022/12/22 15:35:29;;;;;;;12.50;8.30;;;10.80;66.50;;;;;;5094617;28;20413;-73
2022/12/22 15:37:55;;;;;;;13.00;8.25;;;10.80;67.50;;;;;;5095370;28;20731;-74
2022/12/22 15:40:22;;;;;;;11.80;8.37;;;10.70;68.50;;;;;;5093893;28;20435;-74
2022/12/22 15:42:49;;;;;;;11.83;8.90;;;10.70;69.20;;;;;;5091949;28;20389;-72
2022/12/22 15:45:16;;;;;;;12.37;8.00;;;10.60;69.80;;;;;;5094429;28;20744;-74
2022/12/22 15:47:45;;;;;;;12.32;8.30;;;10.70;69.40;;;;;;5094353;28;20778;-73
2022/12/22 15:50:20;;;;;;;12.20;8.00;;;10.70;69.80;;;;;;5095190;28;20746;-73
2022/12/22 15:52:52;;;;;;;10.60;8.55;;;10.70;69.70;;;;;;5104729;28;20480;-74
2022/12/22 15:55:19;;;;;;;13.75;9.60;;;10.60;70.30;;;;;;5098014;28;20486;-76
2022/12/22 15:57:46;;;;;;;13.68;10.18;;;10.60;72.10;;;;;;5100557;28;20386;-73
2022/12/22 16:00:13;;;;;;;15.05;9.40;;;10.60;74.20;;;;;;5102649;28;20391;-73
2022/12/22 16:02:38;;;;;;;14.60;11.03;;;10.60;75.30;;;;;;5076279;28;20433;-74
2022/12/22 16:05:05;;;;;;;19.30;13.40;;;10.50;79.50;;;;;;5073665;28;20384;-75
2022/12/22 16:07:31;;;;;;;21.52;13.40;;;10.50;81.90;;;;;;5072799;28;20384;-72
2022/12/22 16:09:58;;;;;;;17.73;11.48;;;10.50;83.70;;;;;;5073757;28;20536;-75
2022/12/22 16:12:24;;;;;;;17.27;11.33;;;10.50;85.40;;;;;;5079127;28;20414;-73
2022/12/22 16:14:53;;;;;;;19.42;11.93;;;10.50;85.80;;;;;;5094015;28;20405;-74
2022/12/22 16:17:23;;;;;;;14.45;10.52;;;10.40;88.30;;;;;;5094482;28;20370;-74
2022/12/22 16:19:49;;;;;;;16.73;11.45;;;10.40;92.20;;;;;;5093755;28;20374;-74
2022/12/22 16:22:17;;;;;;;18.80;11.63;;;10.40;92.80;;;;;;5098049;28;20385;-72
2022/12/22 16:24:47;;;;;;;16.15;11.68;;;10.30;96.70;;;;;;5105431;28;20743;-74
2022/12/22 16:27:13;;;;;;;20.92;13.32;;;10.20;99.90;;;;;;5104073;28;20378;-75